Time;durP1;ratioP1;P1;durP2;ratioP2;P2;SDS_P1;SDS_P2;PMS_P1;PMS_P2;Temp;Humidity;BMP_temperature;BMP_pressure;BME280_temperature;BME280_humidity;BME280_pressure;Samples;Min_cycle;Max_cycle;Signal;HPM_P1;HPM_P2
2023/03/21 00:00:00;;;;;;;5.80;3.70;;;11.60;99.90;;;;;;5075816;28;20788;-70
2023/03/21 00:02:26;;;;;;;8.60;4.43;;;11.60;99.90;;;;;;5041986;28;20459;-71
2023/03/21 00:04:55;;;;;;;9.70;3.60;;;11.60;99.90;;;;;;5042550;28;20458;-71
2023/03/21 00:07:21;;;;;;;5.70;3.83;;;11.60;99.90;;;;;;5058711;28;20409;-71
2023/03/21 00:09:47;;;;;;;7.60;5.00;;;11.60;99.90;;;;;;5057972;28;20232;-70
2023/03/21 00:12:13;;;;;;;11.67;4.20;;;11.60;99.90;;;;;;5058200;28;20407;-70
2023/03/21 00:14:42;;;;;;;5.77;3.80;;;11.60;99.90;;;;;;5075541;28;20449;-70
2023/03/21 00:17:10;;;;;;;7.30;4.33;;;11.60;99.90;;;;;;5041951;28;20449;-70
2023/03/21 00:19:37;;;;;;;6.50;4.50;;;11.60;99.90;;;;;;5058424;28;21038;-70
2023/03/21 00:22:04;;;;;;;6.00;4.00;;;11.60;99.90;;;;;;5058436;28;20447;-70
2023/03/21 00:24:30;;;;;;;9.93;3.87;;;11.60;99.90;;;;;;5066547;28;20478;-70
2023/03/21 00:26:59;;;;;;;9.87;4.07;;;11.60;99.90;;;;;;5038502;28;20490;-70
2023/03/21 00:29:27;;;;;;;8.60;3.87;;;11.60;99.90;;;;;;5064656;28;20492;-70
2023/03/21 00:31:53;;;;;;;7.83;4.00;;;11.60;99.90;;;;;;5045582;28;20428;-70
2023/03/21 00:34:21;;;;;;;8.33;4.53;;;11.60;99.90;;;;;;5030867;28;20432;-70
2023/03/21 00:36:47;;;;;;;6.30;4.13;;;11.60;99.90;;;;;;5054679;28;20449;-70
2023/03/21 00:39:15;;;;;;;8.43;4.33;;;11.60;99.90;;;;;;5038279;28;20460;-70
2023/03/21 00:41:45;;;;;;;5.90;4.17;;;11.60;99.90;;;;;;5038871;28;20774;-70
2023/03/21 00:44:14;;;;;;;10.40;4.53;;;11.60;99.90;;;;;;5057761;28;20795;-70
2023/03/21 00:46:41;;;;;;;5.77;4.10;;;11.60;99.90;;;;;;5057956;28;20801;-70
2023/03/21 00:49:06;;;;;;;7.20;4.50;;;11.60;99.90;;;;;;5050999;28;20457;-70
2023/03/21 00:51:32;;;;;;;6.67;4.53;;;11.60;99.90;;;;;;5038706;28;20437;-70
2023/03/21 00:53:58;;;;;;;9.83;4.07;;;11.60;99.90;;;;;;5042143;28;20445;-70
2023/03/21 00:56:27;;;;;;;9.80;4.07;;;11.60;99.90;;;;;;5077647;28;20947;-70
2023/03/21 00:58:55;;;;;;;7.63;4.53;;;11.60;99.90;;;;;;5054973;28;20534;-70
2023/03/21 01:01:21;;;;;;;8.03;4.10;;;11.60;99.90;;;;;;5057594;28;21002;-70
2023/03/21 01:03:49;;;;;;;6.60;4.53;;;11.60;99.90;;;;;;5041385;28;20420;-70
2023/03/21 01:06:18;;;;;;;8.37;4.53;;;11.60;99.90;;;;;;5057541;28;20482;-70
2023/03/21 01:08:45;;;;;;;7.97;4.50;;;11.60;99.90;;;;;;5036784;28;20414;-70
2023/03/21 01:11:16;;;;;;;13.83;4.80;;;11.60;99.90;;;;;;5067107;28;20888;-70
2023/03/21 01:13:44;;;;;;;6.23;4.27;;;11.60;99.90;;;;;;5072544;28;20430;-70
2023/03/21 01:16:11;;;;;;;6.97;4.40;;;11.60;99.90;;;;;;5040570;28;20444;-70
2023/03/21 01:18:38;;;;;;;8.97;5.00;;;11.60;99.90;;;;;;5040606;28;20437;-70
2023/03/21 01:21:08;;;;;;;8.63;4.50;;;11.60;99.90;;;;;;5057414;28;20964;-70
2023/03/21 01:23:34;;;;;;;9.83;4.60;;;11.60;99.90;;;;;;5040616;28;20533;-70
2023/03/21 01:26:00;;;;;;;13.57;4.63;;;11.60;99.90;;;;;;5057085;28;20464;-70
2023/03/21 01:28:27;;;;;;;10.33;4.67;;;11.60;99.90;;;;;;5056936;28;20441;-70
2023/03/21 01:30:54;;;;;;;8.40;4.50;;;11.60;99.90;;;;;;5074696;28;20958;-70
2023/03/21 01:33:24;;;;;;;9.80;5.37;;;11.60;99.90;;;;;;5056789;28;20482;-70
2023/03/21 01:35:52;;;;;;;8.13;4.43;;;11.60;99.90;;;;;;5074754;28;20412;-70
2023/03/21 01:38:19;;;;;;;8.43;5.30;;;11.60;99.90;;;;;;5040457;28;20970;-70
2023/03/21 01:40:47;;;;;;;9.80;5.00;;;11.60;99.90;;;;;;5056955;28;20430;-70
2023/03/21 01:43:31;;;;;;;7.03;4.13;;;11.60;99.90;;;;;;5056882;28;20391;-70
2023/03/21 01:46:19;;;;;;;7.03;5.17;;;11.50;99.90;;;;;;5056606;28;21045;-70
2023/03/21 01:49:15;;;;;;;6.53;4.57;;;11.60;99.90;;;;;;5070659;28;20857;-70
2023/03/21 01:51:50;;;;;;;10.63;5.00;;;11.50;99.90;;;;;;5040319;28;20390;-70
2023/03/21 01:54:32;;;;;;;9.93;5.33;;;11.50;99.90;;;;;;5065048;28;20446;-70
2023/03/21 01:57:05;;;;;;;14.70;5.80;;;11.50;99.90;;;;;;5036773;28;20436;-70
2023/03/21 01:59:44;;;;;;;10.40;5.93;;;11.50;99.90;;;;;;5053360;28;20426;-70
2023/03/21 02:02:30;;;;;;;11.70;5.43;;;11.50;99.90;;;;;;5071232;28;20510;-70
2023/03/21 02:05:09;;;;;;;11.30;6.43;;;11.50;99.90;;;;;;5041417;28;21001;-70
2023/03/21 02:07:42;;;;;;;10.00;6.13;;;11.50;99.90;;;;;;5023560;28;20414;-70
2023/03/21 02:10:12;;;;;;;9.80;5.47;;;11.50;99.90;;;;;;5056020;28;20809;-70
2023/03/21 02:12:41;;;;;;;12.03;5.20;;;11.50;99.90;;;;;;5056266;28;20757;-70
2023/03/21 02:15:10;;;;;;;8.70;5.93;;;11.50;99.90;;;;;;5056174;28;20421;-70
2023/03/21 02:18:16;;;;;;;9.63;5.83;;;11.50;99.90;;;;;;5056499;28;20444;-70
2023/03/21 02:21:05;;;;;;;12.67;6.13;;;11.50;99.90;;;;;;5035938;28;20508;-70
2023/03/21 02:24:29;;;;;;;10.00;5.70;;;11.50;99.90;;;;;;5042520;28;20520;-70
2023/03/21 02:27:17;;;;;;;11.30;5.80;;;11.50;99.90;;;;;;5001510;28;20588;-70
2023/03/21 02:30:14;;;;;;;11.50;5.77;;;11.50;99.90;;;;;;5065991;28;20433;-70
2023/03/21 02:33:21;;;;;;;9.43;5.63;;;11.50;99.90;;;;;;5055835;28;20953;-70
2023/03/21 02:35:57;;;;;;;9.17;5.63;;;11.50;99.90;;;;;;4995984;28;21007;-70
2023/03/21 02:38:47;;;;;;;7.20;5.10;;;11.50;99.90;;;;;;5036683;28;20441;-70
2023/03/21 02:41:38;;;;;;;10.97;5.20;;;11.50;99.90;;;;;;5019705;28;20412;-70
2023/03/21 02:44:29;;;;;;;11.90;5.83;;;11.50;99.90;;;;;;5039247;28;20420;-70
2023/03/21 02:47:02;;;;;;;13.37;6.57;;;11.50;99.90;;;;;;5073401;28;20513;-70
2023/03/21 02:49:49;;;;;;;11.23;5.20;;;11.50;99.90;;;;;;5055342;28;20447;-70
2023/03/21 02:52:25;;;;;;;8.63;6.43;;;11.50;99.90;;;;;;5029992;28;20438;-71
2023/03/21 02:54:55;;;;;;;9.87;5.80;;;11.50;99.90;;;;;;5035511;28;20893;-71
2023/03/21 02:57:25;;;;;;;10.17;5.77;;;11.50;99.90;;;;;;5030061;28;20541;-71
2023/03/21 02:59:54;;;;;;;9.23;5.60;;;11.50;99.90;;;;;;5038862;28;20432;-71
2023/03/21 03:02:27;;;;;;;9.63;5.90;;;11.50;99.90;;;;;;5055434;28;20819;-71
2023/03/21 03:04:59;;;;;;;7.63;5.20;;;11.50;99.90;;;;;;5038852;28;20472;-71
2023/03/21 03:07:40;;;;;;;6.77;5.13;;;11.50;99.90;;;;;;5054993;28;20437;-71
2023/03/21 03:10:38;;;;;;;7.83;5.03;;;11.50;99.90;;;;;;5038688;28;20450;-71
2023/03/21 03:13:10;;;;;;;9.63;5.27;;;11.50;99.90;;;;;;5055246;28;20820;-71
2023/03/21 03:15:44;;;;;;;7.20;4.73;;;11.50;99.90;;;;;;5072915;28;20929;-71
2023/03/21 03:18:13;;;;;;;9.57;6.23;;;11.50;99.90;;;;;;5055199;28;20513;-71
2023/03/21 03:21:35;;;;;;;8.17;4.87;;;11.50;99.90;;;;;;5038459;28;20454;-71
2023/03/21 03:24:26;;;;;;;8.40;4.53;;;11.50;99.90;;;;;;5051746;28;20517;-71
2023/03/21 03:26:55;;;;;;;9.73;4.23;;;11.50;99.90;;;;;;5048205;28;20420;-71
2023/03/21 03:29:26;;;;;;;5.60;4.93;;;11.50;99.90;;;;;;5051837;28;20461;-69
2023/03/21 03:31:57;;;;;;;7.13;4.60;;;11.50;99.90;;;;;;5047078;28;20427;-69
2023/03/21 03:34:33;;;;;;;12.00;5.07;;;11.50;99.90;;;;;;5038474;28;20487;-69
2023/03/21 03:37:04;;;;;;;8.17;4.80;;;11.50;99.90;;;;;;5038601;28;20990;-69
2023/03/21 03:39:55;;;;;;;9.20;5.77;;;11.50;99.90;;;;;;5038338;28;20467;-70
2023/03/21 03:42:30;;;;;;;7.43;4.47;;;11.50;99.90;;;;;;5044679;28;20635;-71
2023/03/21 03:45:06;;;;;;;7.03;4.73;;;11.40;99.90;;;;;;5035911;28;20458;-71
2023/03/21 03:47:41;;;;;;;8.40;5.20;;;11.50;99.90;;;;;;5035607;28;20521;-71
2023/03/21 03:50:25;;;;;;;8.10;4.60;;;11.50;99.90;;;;;;5002037;28;20435;-71
2023/03/21 03:53:03;;;;;;;5.67;3.90;;;11.40;99.90;;;;;;5064500;28;20406;-71
2023/03/21 03:55:33;;;;;;;7.63;5.30;;;11.40;99.90;;;;;;5053852;28;20446;-71
2023/03/21 03:58:04;;;;;;;8.57;4.43;;;11.50;99.90;;;;;;5037552;28;20437;-71
2023/03/21 04:00:36;;;;;;;9.07;4.90;;;11.40;99.90;;;;;;5071439;28;20514;-71
2023/03/21 04:03:08;;;;;;;9.30;5.60;;;11.40;99.90;;;;;;5055192;28;20442;-71
2023/03/21 04:05:35;;;;;;;6.07;4.60;;;11.40;99.90;;;;;;5018068;28;20491;-71
2023/03/21 04:08:02;;;;;;;9.67;4.60;;;11.50;99.90;;;;;;5033506;28;20919;-71
2023/03/21 04:10:38;;;;;;;7.53;4.43;;;11.50;99.90;;;;;;5054626;28;20441;-71
2023/03/21 04:13:04;;;;;;;7.00;5.00;;;11.40;99.90;;;;;;5038392;28;20426;-70
2023/03/21 04:15:48;;;;;;;5.00;3.63;;;11.40;99.90;;;;;;5051041;28;20408;-70
2023/03/21 04:18:15;;;;;;;6.83;4.30;;;11.40;99.90;;;;;;5052732;28;20449;-71
2023/03/21 04:20:43;;;;;;;7.43;5.07;;;11.40;99.90;;;;;;5037900;28;20433;-71
2023/03/21 04:23:12;;;;;;;10.07;4.80;;;11.40;99.90;;;;;;5037452;28;21133;-70
2023/03/21 04:25:43;;;;;;;7.33;4.80;;;11.40;99.90;;;;;;5071211;28;20442;-71
2023/03/21 04:28:10;;;;;;;9.27;4.97;;;11.40;99.90;;;;;;5050948;28;20515;-70
2023/03/21 04:30:48;;;;;;;12.40;5.20;;;11.40;99.90;;;;;;5072043;28;20491;-71
2023/03/21 04:33:18;;;;;;;6.70;4.53;;;11.40;99.90;;;;;;5048772;28;20446;-71
2023/03/21 04:35:55;;;;;;;10.33;4.80;;;11.40;99.90;;;;;;5052370;28;20453;-70
2023/03/21 04:38:29;;;;;;;6.00;5.17;;;11.40;99.90;;;;;;5034205;28;20402;-70
2023/03/21 04:40:57;;;;;;;11.53;4.90;;;11.40;99.90;;;;;;5053008;28;20435;-70
2023/03/21 04:43:23;;;;;;;8.80;4.90;;;11.40;99.90;;;;;;5055024;28;20448;-71
2023/03/21 04:45:52;;;;;;;6.87;5.13;;;11.40;99.90;;;;;;5041257;28;20883;-70
2023/03/21 04:48:18;;;;;;;8.53;4.77;;;11.40;99.90;;;;;;5041465;28;20467;-71
2023/03/21 04:50:45;;;;;;;9.20;5.20;;;11.40;99.90;;;;;;5057987;28;20499;-71
2023/03/21 04:53:12;;;;;;;6.77;4.53;;;11.40;99.90;;;;;;5057738;28;20529;-70
2023/03/21 04:55:38;;;;;;;7.53;5.20;;;11.40;99.90;;;;;;5064000;28;20435;-71
2023/03/21 04:58:05;;;;;;;7.80;4.40;;;11.40;99.90;;;;;;5041277;28;20858;-71
2023/03/21 05:00:36;;;;;;;6.93;4.90;;;11.40;99.90;;;;;;5057285;28;20440;-71
2023/03/21 05:03:07;;;;;;;8.33;4.40;;;11.40;99.90;;;;;;5057839;28;20394;-71
2023/03/21 05:05:36;;;;;;;8.23;4.50;;;11.40;99.90;;;;;;5057438;28;20465;-70
2023/03/21 05:08:05;;;;;;;8.03;4.90;;;11.40;99.90;;;;;;5057669;28;20429;-70
2023/03/21 05:10:32;;;;;;;6.50;4.70;;;11.40;99.90;;;;;;5057589;28;20450;-71
2023/03/21 05:13:03;;;;;;;6.13;4.40;;;11.40;99.90;;;;;;5062059;28;20470;-71
2023/03/21 05:15:29;;;;;;;12.13;5.27;;;11.40;99.90;;;;;;5074325;28;20418;-71
2023/03/21 05:17:57;;;;;;;5.27;4.30;;;11.40;99.90;;;;;;5059666;28;20448;-71
2023/03/21 05:20:28;;;;;;;6.67;4.37;;;11.40;99.90;;;;;;5057223;28;20422;-70
2023/03/21 05:22:54;;;;;;;6.37;4.37;;;11.40;99.90;;;;;;5056889;28;20429;-70
2023/03/21 05:25:34;;;;;;;7.83;4.63;;;11.40;99.90;;;;;;5056978;28;20472;-71
2023/03/21 05:28:08;;;;;;;6.30;4.63;;;11.40;99.90;;;;;;5057134;28;20409;-71
2023/03/21 05:30:34;;;;;;;5.37;4.27;;;11.40;99.90;;;;;;5025964;28;20470;-71
2023/03/21 05:33:04;;;;;;;7.40;4.30;;;11.40;99.90;;;;;;5055391;28;20439;-71
2023/03/21 05:35:30;;;;;;;10.97;4.90;;;11.40;99.90;;;;;;5056721;28;21153;-71
2023/03/21 05:37:59;;;;;;;6.73;4.50;;;11.40;99.90;;;;;;5040529;28;20508;-71
2023/03/21 05:40:31;;;;;;;11.90;5.27;;;11.40;99.90;;;;;;5046861;28;20873;-70
2023/03/21 05:42:58;;;;;;;8.87;5.40;;;11.40;99.90;;;;;;5056077;28;20417;-70
2023/03/21 05:45:24;;;;;;;6.00;4.90;;;11.40;99.90;;;;;;5053265;28;20960;-71
2023/03/21 05:47:50;;;;;;;7.17;4.70;;;11.40;99.90;;;;;;5054747;28;20455;-71
2023/03/21 05:50:19;;;;;;;13.40;5.60;;;11.40;99.90;;;;;;5058664;28;20476;-71
2023/03/21 05:52:56;;;;;;;10.50;5.00;;;11.40;99.90;;;;;;5039734;28;20449;-71
2023/03/21 05:55:22;;;;;;;9.80;5.40;;;11.40;99.90;;;;;;5037186;28;20441;-70
2023/03/21 05:57:49;;;;;;;9.37;4.97;;;11.40;99.90;;;;;;5036688;28;20409;-71
2023/03/21 06:00:23;;;;;;;8.80;4.70;;;11.40;99.90;;;;;;5054356;28;20438;-71
2023/03/21 06:03:04;;;;;;;8.57;4.47;;;11.40;99.90;;;;;;5020194;28;20963;-71
2023/03/21 06:06:09;;;;;;;7.77;4.80;;;11.40;99.90;;;;;;5053040;28;20501;-71
2023/03/21 06:08:42;;;;;;;9.93;6.00;;;11.40;99.90;;;;;;5074077;28;20886;-71
2023/03/21 06:11:23;;;;;;;7.00;4.53;;;11.40;99.90;;;;;;5055991;28;20436;-70
2023/03/21 06:13:55;;;;;;;7.57;5.03;;;11.40;99.90;;;;;;5039994;28;20419;-71
2023/03/21 06:16:22;;;;;;;9.50;5.00;;;11.40;99.90;;;;;;5056331;28;20402;-71
2023/03/21 06:18:50;;;;;;;13.17;4.73;;;11.40;99.90;;;;;;5074015;28;20746;-71
2023/03/21 06:21:30;;;;;;;9.30;5.73;;;11.40;99.90;;;;;;5056108;28;20899;-71
2023/03/21 06:23:56;;;;;;;11.23;4.60;;;11.40;99.90;;;;;;5056251;28;20418;-71
2023/03/21 06:26:22;;;;;;;7.97;5.40;;;11.40;99.90;;;;;;5055845;28;20711;-71
2023/03/21 06:28:52;;;;;;;5.30;4.27;;;11.40;99.90;;;;;;5039772;28;20458;-72
2023/03/21 06:31:23;;;;;;;6.53;4.97;;;11.40;99.90;;;;;;5039160;28;20533;-71
2023/03/21 06:33:50;;;;;;;8.40;5.27;;;11.40;99.90;;;;;;5039465;28;20445;-71
2023/03/21 06:36:19;;;;;;;10.80;4.30;;;11.40;99.90;;;;;;5056001;28;20493;-71
2023/03/21 06:38:45;;;;;;;8.90;5.20;;;11.40;99.90;;;;;;5039183;28;20442;-71
2023/03/21 06:41:12;;;;;;;7.63;5.30;;;11.40;99.90;;;;;;5044156;28;20430;-71
2023/03/21 06:43:44;;;;;;;6.70;4.70;;;11.40;99.90;;;;;;5039129;28;20491;-70
2023/03/21 06:46:10;;;;;;;8.27;5.47;;;11.30;99.90;;;;;;5055462;28;20469;-71
2023/03/21 06:48:38;;;;;;;7.47;4.57;;;11.30;99.90;;;;;;5055953;28;20438;-70
2023/03/21 06:51:07;;;;;;;9.70;5.70;;;11.40;99.90;;;;;;5039587;28;20831;-70
2023/03/21 06:53:40;;;;;;;6.63;4.80;;;11.40;99.90;;;;;;5056011;28;20418;-70
2023/03/21 06:56:15;;;;;;;7.80;5.10;;;11.30;99.90;;;;;;5073571;28;20441;-70
2023/03/21 06:58:43;;;;;;;11.20;5.23;;;11.40;99.90;;;;;;5039506;28;20402;-70
2023/03/21 07:01:19;;;;;;;12.50;5.30;;;11.30;99.90;;;;;;5073853;28;20491;-70
2023/03/21 07:04:03;;;;;;;11.50;5.60;;;11.30;99.90;;;;;;5055873;28;20434;-70
2023/03/21 07:06:32;;;;;;;8.17;5.50;;;11.30;99.90;;;;;;5071935;28;21047;-71
2023/03/21 07:08:59;;;;;;;7.70;5.30;;;11.40;99.90;;;;;;5055122;28;20426;-70
2023/03/21 07:11:25;;;;;;;9.87;4.87;;;11.30;99.90;;;;;;5039192;28;20410;-70
2023/03/21 07:13:52;;;;;;;9.73;5.13;;;11.30;99.90;;;;;;5055483;28;20450;-71
2023/03/21 07:16:20;;;;;;;8.33;5.53;;;11.30;99.90;;;;;;5055525;28;20461;-70
2023/03/21 07:18:51;;;;;;;8.40;5.00;;;11.40;99.90;;;;;;5039133;28;20548;-73
2023/03/21 07:21:17;;;;;;;10.37;6.43;;;11.30;99.90;;;;;;5038448;28;20823;-69
2023/03/21 07:23:46;;;;;;;7.87;5.10;;;11.40;99.90;;;;;;5038411;28;20431;-71
2023/03/21 07:26:17;;;;;;;11.90;5.43;;;11.40;99.90;;;;;;5053453;28;20441;-70
2023/03/21 07:28:43;;;;;;;8.97;5.60;;;11.40;99.90;;;;;;5026985;28;20437;-70
2023/03/21 07:31:15;;;;;;;8.30;5.00;;;11.30;99.90;;;;;;5038204;28;20457;-70
2023/03/21 07:33:43;;;;;;;13.23;5.50;;;11.40;99.90;;;;;;5038043;28;20461;-70
2023/03/21 07:36:11;;;;;;;11.50;5.23;;;11.30;99.90;;;;;;5072031;28;20445;-70
2023/03/21 07:38:41;;;;;;;6.90;4.97;;;11.40;99.90;;;;;;5055798;28;20441;-70
2023/03/21 07:41:12;;;;;;;10.43;5.17;;;11.40;99.90;;;;;;5039855;28;20471;-70
2023/03/21 07:43:45;;;;;;;9.10;5.03;;;11.40;99.90;;;;;;5071913;28;20413;-70
2023/03/21 07:46:13;;;;;;;8.33;5.57;;;11.40;99.90;;;;;;5071751;28;20429;-70
2023/03/21 07:48:39;;;;;;;11.43;5.30;;;11.40;99.90;;;;;;5026166;28;20444;-70
2023/03/21 07:51:08;;;;;;;7.10;5.00;;;11.40;99.90;;;;;;5039098;28;20426;-70
2023/03/21 07:53:34;;;;;;;11.53;4.90;;;11.40;99.90;;;;;;5049864;28;20421;-70
2023/03/21 07:56:03;;;;;;;9.70;4.60;;;11.40;99.90;;;;;;5049108;28;21094;-70
2023/03/21 07:58:33;;;;;;;10.37;4.37;;;11.40;99.90;;;;;;5055737;28;20444;-70
2023/03/21 08:01:01;;;;;;;8.07;5.33;;;11.40;99.90;;;;;;5037142;28;20799;-70
2023/03/21 08:03:28;;;;;;;10.07;5.57;;;11.40;99.90;;;;;;5053705;28;20430;-69
2023/03/21 08:05:54;;;;;;;6.77;4.57;;;11.40;99.90;;;;;;5071658;28;20461;-69
2023/03/21 08:08:20;;;;;;;6.83;4.53;;;11.40;99.90;;;;;;5054847;28;20457;-70
2023/03/21 08:10:49;;;;;;;8.83;4.43;;;11.40;99.90;;;;;;5038162;28;20934;-70
2023/03/21 08:13:17;;;;;;;7.83;4.90;;;11.40;99.90;;;;;;5072088;28;20418;-70
2023/03/21 08:15:43;;;;;;;7.90;4.57;;;11.40;99.90;;;;;;5054150;28;20401;-69
2023/03/21 08:18:10;;;;;;;7.97;5.10;;;11.40;99.90;;;;;;5054738;28;20428;-70
2023/03/21 08:20:36;;;;;;;7.33;4.53;;;11.40;99.90;;;;;;5058366;28;20453;-70
2023/03/21 08:23:05;;;;;;;8.00;5.47;;;11.40;99.90;;;;;;5076215;28;20418;-69
2023/03/21 08:25:35;;;;;;;6.80;4.90;;;11.40;99.90;;;;;;5058203;28;20515;-70
2023/03/21 08:28:02;;;;;;;10.57;5.23;;;11.40;99.90;;;;;;5075371;28;20424;-70
2023/03/21 08:30:28;;;;;;;11.17;5.37;;;11.50;99.90;;;;;;5055817;28;20461;-72
2023/03/21 08:33:01;;;;;;;7.70;5.30;;;11.50;99.90;;;;;;5057880;28;20901;-73
2023/03/21 08:35:28;;;;;;;8.33;5.10;;;11.50;99.90;;;;;;5056984;28;20938;-70
2023/03/21 08:37:57;;;;;;;8.70;4.90;;;11.50;99.90;;;;;;5056024;28;20928;-70
2023/03/21 08:40:23;;;;;;;6.93;5.07;;;11.50;99.90;;;;;;5074462;28;20453;-70
2023/03/21 08:42:49;;;;;;;10.43;5.77;;;11.50;99.90;;;;;;5074362;28;20531;-70
2023/03/21 08:45:17;;;;;;;6.43;5.03;;;11.50;99.90;;;;;;5057388;28;21020;-70
2023/03/21 08:47:43;;;;;;;7.60;5.10;;;11.50;99.90;;;;;;5053324;28;20425;-70
2023/03/21 08:50:12;;;;;;;8.20;5.20;;;11.50;99.90;;;;;;5055295;28;20445;-70
2023/03/21 08:52:38;;;;;;;10.80;5.20;;;11.50;99.90;;;;;;5049274;28;20426;-70
2023/03/21 08:55:04;;;;;;;9.33;5.07;;;11.50;99.90;;;;;;5040559;28;20422;-71
2023/03/21 08:57:30;;;;;;;5.90;4.53;;;11.50;99.90;;;;;;5057514;28;20533;-70
2023/03/21 09:00:13;;;;;;;14.20;5.40;;;11.50;99.90;;;;;;5055208;28;20451;-70
2023/03/21 09:02:45;;;;;;;6.37;4.70;;;11.50;99.90;;;;;;5046354;28;21037;-70
2023/03/21 09:05:15;;;;;;;6.27;4.90;;;11.50;99.90;;;;;;5049532;28;20454;-70
2023/03/21 09:07:42;;;;;;;10.00;4.27;;;11.50;99.90;;;;;;5019353;28;20450;-70
2023/03/21 09:10:21;;;;;;;8.77;5.93;;;11.50;99.90;;;;;;5064834;28;20434;-71
2023/03/21 09:12:53;;;;;;;8.50;4.33;;;11.50;99.90;;;;;;5050708;28;20454;-71
2023/03/21 09:15:27;;;;;;;7.03;4.40;;;11.50;99.90;;;;;;5071285;28;20421;-71
2023/03/21 09:17:55;;;;;;;8.80;4.77;;;11.50;99.90;;;;;;5038866;28;20453;-72
2023/03/21 09:20:29;;;;;;;7.60;5.03;;;11.50;99.90;;;;;;5039258;28;20459;-72
2023/03/21 09:22:59;;;;;;;8.80;5.00;;;11.50;99.90;;;;;;5068814;28;20511;-69
2023/03/21 09:25:29;;;;;;;7.37;4.80;;;11.60;99.90;;;;;;5040539;28;20545;-69
2023/03/21 09:27:56;;;;;;;8.20;5.80;;;11.60;99.90;;;;;;5039872;28;20439;-70
2023/03/21 09:30:25;;;;;;;10.27;4.40;;;11.50;99.90;;;;;;5057520;28;20450;-70
2023/03/21 09:32:54;;;;;;;8.50;4.77;;;11.50;99.90;;;;;;5039376;28;20446;-70
2023/03/21 09:35:20;;;;;;;6.57;3.90;;;11.50;99.90;;;;;;5056667;28;20466;-70
2023/03/21 09:37:47;;;;;;;9.87;4.70;;;11.60;99.90;;;;;;5040251;28;20425;-70
2023/03/21 09:40:19;;;;;;;7.33;4.93;;;11.60;99.90;;;;;;5033789;28;20482;-70
2023/03/21 09:42:55;;;;;;;8.70;5.17;;;11.60;99.90;;;;;;5036838;28;20422;-70
2023/03/21 09:45:33;;;;;;;8.33;4.33;;;11.60;99.90;;;;;;5054441;28;20462;-70
2023/03/21 09:47:59;;;;;;;7.23;5.60;;;11.60;99.90;;;;;;5056261;28;20768;-70
2023/03/21 09:50:34;;;;;;;7.63;6.00;;;11.60;99.90;;;;;;5055526;28;20989;-70
2023/03/21 09:53:13;;;;;;;9.40;5.00;;;11.60;99.90;;;;;;5074605;28;20432;-70
2023/03/21 09:55:41;;;;;;;9.63;6.20;;;11.60;99.90;;;;;;5056067;28;20552;-70
2023/03/21 09:58:28;;;;;;;8.57;5.60;;;11.60;99.90;;;;;;5056809;28;20442;-70
2023/03/21 10:01:28;;;;;;;8.67;5.73;;;11.60;99.90;;;;;;5040122;28;20469;-71
2023/03/21 10:04:06;;;;;;;8.03;5.13;;;11.60;99.90;;;;;;5070100;28;20433;-70
2023/03/21 10:06:40;;;;;;;8.40;6.00;;;11.60;99.90;;;;;;5055371;28;20473;-69
2023/03/21 10:09:23;;;;;;;11.10;6.13;;;11.60;99.90;;;;;;5055714;28;20530;-70
2023/03/21 10:12:13;;;;;;;10.03;5.30;;;11.60;99.90;;;;;;5074291;28;20471;-69
2023/03/21 10:14:53;;;;;;;8.90;5.63;;;11.70;99.90;;;;;;5056755;28;20418;-69
2023/03/21 10:17:39;;;;;;;11.03;5.87;;;11.70;99.90;;;;;;5074481;28;20796;-69
2023/03/21 10:20:20;;;;;;;10.90;5.27;;;11.70;99.90;;;;;;5074214;28;20465;-69
2023/03/21 10:22:49;;;;;;;12.10;5.70;;;11.60;99.90;;;;;;5056680;28;20416;-69
2023/03/21 10:25:23;;;;;;;10.10;5.30;;;11.70;99.90;;;;;;5056590;28;20998;-69
2023/03/21 10:27:51;;;;;;;6.93;4.53;;;11.70;99.90;;;;;;5056389;28;20414;-69
2023/03/21 10:30:31;;;;;;;10.47;5.73;;;11.70;99.90;;;;;;5056277;28;20509;-69
2023/03/21 10:33:03;;;;;;;8.87;4.67;;;11.70;99.90;;;;;;5074074;28;20402;-69
2023/03/21 10:35:33;;;;;;;12.50;5.73;;;11.70;99.90;;;;;;5074027;28;20406;-69
2023/03/21 10:38:03;;;;;;;8.63;5.00;;;11.70;99.90;;;;;;5074136;28;20469;-69
2023/03/21 10:40:33;;;;;;;7.00;4.40;;;11.70;99.90;;;;;;5054853;28;20479;-69
2023/03/21 10:43:18;;;;;;;6.90;4.57;;;11.70;99.90;;;;;;5035907;28;20388;-69
2023/03/21 10:45:48;;;;;;;6.87;4.60;;;11.70;99.90;;;;;;5019656;28;20454;-70
2023/03/21 10:48:18;;;;;;;8.63;5.37;;;11.70;99.90;;;;;;5030251;28;20418;-69
2023/03/21 10:50:47;;;;;;;8.27;5.47;;;11.70;99.90;;;;;;5039434;28;20441;-69
2023/03/21 10:53:17;;;;;;;8.47;5.60;;;11.80;99.90;;;;;;5055833;28;20406;-69
2023/03/21 10:55:55;;;;;;;10.50;5.83;;;11.80;99.90;;;;;;5058934;28;20435;-70
2023/03/21 10:58:26;;;;;;;11.10;5.77;;;11.80;99.90;;;;;;5053626;28;20422;-70
2023/03/21 11:01:01;;;;;;;7.47;5.07;;;11.80;99.90;;;;;;5019512;28;21064;-70
2023/03/21 11:03:31;;;;;;;10.00;5.70;;;11.80;99.90;;;;;;5035931;28;20418;-70
2023/03/21 11:06:09;;;;;;;8.83;4.97;;;11.80;99.90;;;;;;5052353;28;20469;-70
2023/03/21 11:08:45;;;;;;;7.23;5.40;;;11.80;99.90;;;;;;5052366;28;20744;-70
2023/03/21 11:11:20;;;;;;;8.27;5.53;;;11.80;99.90;;;;;;5052184;28;20449;-70
2023/03/21 11:13:59;;;;;;;8.37;5.10;;;11.80;99.90;;;;;;5035724;28;20512;-70
2023/03/21 11:16:40;;;;;;;6.80;5.40;;;11.80;99.90;;;;;;5019475;28;20399;-70
2023/03/21 11:19:15;;;;;;;7.67;5.57;;;11.80;99.90;;;;;;5051381;28;20451;-70
2023/03/21 11:21:42;;;;;;;6.80;5.50;;;11.80;99.90;;;;;;5053275;28;20436;-70
2023/03/21 11:24:16;;;;;;;9.20;5.03;;;11.80;99.90;;;;;;5035577;28;20909;-70
2023/03/21 11:26:48;;;;;;;7.87;5.53;;;11.80;99.90;;;;;;5047362;28;20451;-71
2023/03/21 11:29:29;;;;;;;7.90;5.23;;;11.80;99.90;;;;;;5071517;28;20538;-69
2023/03/21 11:32:09;;;;;;;7.63;5.50;;;11.90;99.90;;;;;;5052203;28;20524;-70
2023/03/21 11:34:50;;;;;;;9.87;5.53;;;11.90;99.90;;;;;;5064660;28;20452;-70
2023/03/21 11:37:40;;;;;;;11.40;5.97;;;11.90;99.90;;;;;;5072760;28;20867;-69
2023/03/21 11:40:22;;;;;;;11.93;5.37;;;11.90;99.90;;;;;;5054325;28;20427;-70
2023/03/21 11:42:54;;;;;;;9.27;5.20;;;11.90;99.90;;;;;;5072400;28;20479;-70
2023/03/21 11:45:22;;;;;;;8.30;5.07;;;11.90;99.90;;;;;;5071250;28;20511;-70
2023/03/21 11:47:51;;;;;;;7.20;5.33;;;12.00;99.90;;;;;;5054527;28;20858;-70
2023/03/21 11:50:32;;;;;;;12.00;5.53;;;12.00;99.90;;;;;;5054517;28;20438;-70
2023/03/21 11:53:19;;;;;;;9.23;5.90;;;12.00;99.90;;;;;;5037431;28;20852;-71
2023/03/21 11:56:06;;;;;;;4.97;3.80;;;12.00;99.90;;;;;;5078042;28;20471;-70
2023/03/21 11:58:31;;;;;;;10.03;5.87;;;12.00;99.90;;;;;;5076817;28;20468;-69
2023/03/21 12:01:22;;;;;;;7.03;4.80;;;12.00;99.90;;;;;;5044583;28;20437;-69
2023/03/21 12:04:19;;;;;;;7.93;4.97;;;12.00;99.90;;;;;;5068136;28;20512;-69
2023/03/21 12:06:59;;;;;;;10.23;5.20;;;12.00;99.90;;;;;;5060499;28;20840;-69
2023/03/21 12:09:44;;;;;;;8.60;5.63;;;12.00;99.90;;;;;;5060853;28;20472;-69
2023/03/21 12:12:37;;;;;;;6.07;5.47;;;12.00;99.90;;;;;;5060505;28;20433;-69
2023/03/21 12:15:22;;;;;;;8.03;5.27;;;12.10;99.90;;;;;;5060857;28;20462;-69
2023/03/21 12:18:13;;;;;;;7.20;5.10;;;12.10;99.90;;;;;;5076838;28;20441;-69
2023/03/21 12:21:05;;;;;;;7.73;5.50;;;12.10;99.90;;;;;;5057619;28;20490;-69
2023/03/21 12:23:43;;;;;;;12.53;4.67;;;12.10;99.90;;;;;;5040577;28;20447;-69
2023/03/21 12:26:18;;;;;;;8.70;5.00;;;12.10;99.90;;;;;;5057711;28;20470;-69
2023/03/21 12:28:47;;;;;;;10.90;4.60;;;12.10;99.90;;;;;;5064361;28;20449;-69
2023/03/21 12:31:54;;;;;;;6.87;4.77;;;12.10;99.90;;;;;;5060550;28;20475;-69
2023/03/21 12:34:34;;;;;;;8.90;5.63;;;12.10;99.90;;;;;;5043690;28;20449;-69
2023/03/21 12:37:21;;;;;;;5.97;4.50;;;12.10;99.90;;;;;;5060376;28;20446;-69
2023/03/21 12:39:48;;;;;;;5.07;4.30;;;12.10;99.90;;;;;;5040665;28;20984;-69
2023/03/21 12:42:41;;;;;;;7.07;4.60;;;12.10;99.90;;;;;;5040565;28;20437;-69
2023/03/21 12:45:17;;;;;;;7.97;4.90;;;12.10;99.90;;;;;;5056943;28;20528;-69
2023/03/21 12:47:49;;;;;;;8.00;4.70;;;12.10;99.90;;;;;;5041616;28;20433;-70
2023/03/21 12:50:23;;;;;;;8.60;4.60;;;12.10;99.90;;;;;;5076647;28;20462;-68
2023/03/21 12:52:56;;;;;;;6.97;4.83;;;12.10;99.90;;;;;;5060155;28;20946;-69
2023/03/21 12:55:31;;;;;;;8.13;5.17;;;12.10;99.90;;;;;;5078348;28;20746;-69
2023/03/21 12:58:08;;;;;;;6.47;4.53;;;12.10;99.90;;;;;;5074433;28;20461;-70
2023/03/21 13:00:48;;;;;;;9.47;4.37;;;12.10;99.90;;;;;;5056442;28;20465;-70
2023/03/21 13:03:31;;;;;;;6.40;4.80;;;12.20;99.90;;;;;;5041393;28;20437;-70
2023/03/21 13:06:03;;;;;;;8.53;4.80;;;12.20;99.90;;;;;;5073383;28;20470;-70
2023/03/21 13:08:48;;;;;;;7.80;5.50;;;12.20;99.90;;;;;;5038771;28;20437;-70
2023/03/21 13:11:19;;;;;;;8.10;4.40;;;12.20;99.90;;;;;;5058943;28;20454;-70
2023/03/21 13:14:00;;;;;;;6.40;4.60;;;12.20;99.90;;;;;;5038717;28;20971;-70
2023/03/21 13:16:34;;;;;;;6.80;4.10;;;12.20;99.90;;;;;;5073219;28;20399;-70